createdAt,value
2023-04-26T00:02:22.999Z,95972.47
2023-04-26T00:04:56.500Z,95976.78
2023-04-26T00:07:24.769Z,95967.00
2023-04-26T00:09:53.389Z,95963.88
2023-04-26T00:12:22.103Z,95972.47
2023-04-26T00:14:51.493Z,95975.63
2023-04-26T00:17:19.436Z,95984.22
2023-04-26T00:19:47.280Z,95966.41
2023-04-26T00:22:15.503Z,95972.25
2023-04-26T00:24:43.507Z,95975.66
2023-04-26T00:27:11.352Z,95972.56
2023-04-26T00:29:39.235Z,95975.34
2023-04-26T00:32:08.654Z,95973.09
2023-04-26T00:34:38.665Z,95973.03
2023-04-26T00:37:06.805Z,95971.81
2023-04-26T00:39:34.744Z,95969.47
2023-04-26T00:42:02.812Z,95967.22
2023-04-26T00:44:30.610Z,95970.00
2023-04-26T00:46:58.613Z,95964.78
2023-04-26T00:49:27.852Z,95978.94
2023-04-26T00:51:56.645Z,95963.97
2023-04-26T00:54:25.795Z,95973.38
2023-04-26T00:56:53.701Z,95962.69
2023-04-26T00:59:22.100Z,95973.13
2023-04-26T01:01:50.051Z,95973.75
2023-04-26T01:04:19.284Z,95975.22
2023-04-26T01:06:48.874Z,95963.34
2023-04-26T01:09:16.681Z,95964.84
2023-04-26T01:11:45.742Z,95978.25
2023-04-26T01:14:15.959Z,95970.88
2023-04-26T01:16:46.920Z,95976.72
2023-04-26T01:19:15.360Z,95981.38
2023-04-26T01:21:44.080Z,95982.03
2023-04-26T01:24:14.736Z,95979.34
2023-04-26T01:26:47.323Z,95983.75
2023-04-26T01:29:19.554Z,95982.97
2023-04-26T01:31:48.312Z,95982.09
2023-04-26T01:34:17.055Z,95983.59
2023-04-26T01:36:44.917Z,95974.16
2023-04-26T01:39:14.079Z,95981.31
2023-04-26T01:41:41.885Z,95980.56
2023-04-26T01:44:09.699Z,95993.81
2023-04-26T01:46:37.568Z,95992.56
2023-04-26T01:49:05.980Z,95986.22
2023-04-26T01:51:34.310Z,95995.88
2023-04-26T01:54:02.130Z,96001.88
2023-04-26T01:56:31.307Z,95992.16
2023-04-26T01:58:59.240Z,95992.78
2023-04-26T02:01:27.325Z,95987.94
2023-04-26T02:03:55.436Z,95986.50
2023-04-26T02:06:23.446Z,95994.88
2023-04-26T02:08:51.566Z,96000.19
2023-04-26T02:11:19.682Z,95987.44
2023-04-26T02:13:48.983Z,95990.31
2023-04-26T02:16:17.091Z,95997.09
2023-04-26T02:18:45.460Z,95973.28
2023-04-26T02:21:13.438Z,95978.41
2023-04-26T02:23:41.406Z,95990.25
2023-04-26T02:26:12.710Z,95986.72
2023-04-26T02:28:40.622Z,95990.47
2023-04-26T02:31:10.129Z,95985.41
2023-04-26T02:33:38.221Z,95967.50
2023-04-26T02:36:07.143Z,95993.03
2023-04-26T02:38:36.401Z,95986.69
2023-04-26T02:41:05.424Z,95988.72
2023-04-26T02:43:33.645Z,95992.22
2023-04-26T02:46:01.611Z,95992.38
2023-04-26T02:48:30.994Z,95992.81
2023-04-26T02:50:58.922Z,95989.34
2023-04-26T02:53:26.844Z,95973.13
2023-04-26T02:55:54.731Z,95991.28
2023-04-26T02:58:22.671Z,95978.22
2023-04-26T03:00:51.024Z,95993.88
2023-04-26T03:03:23.085Z,95984.88
2023-04-26T03:05:52.650Z,95986.28
2023-04-26T03:08:20.598Z,95985.44
2023-04-26T03:10:48.579Z,95977.16
2023-04-26T03:13:16.538Z,95979.94
2023-04-26T03:15:47.055Z,95973.00
2023-04-26T03:18:15.001Z,95996.13
2023-04-26T03:20:43.201Z,95997.81
2023-04-26T03:23:12.426Z,95979.63
2023-04-26T03:25:40.498Z,95996.94
2023-04-26T03:28:08.394Z,96004.19
2023-04-26T03:30:37.491Z,95992.25
2023-04-26T03:33:05.416Z,95993.22
2023-04-26T03:35:33.400Z,95997.63
2023-04-26T03:38:01.433Z,95996.09
2023-04-26T03:40:30.856Z,95999.19
2023-04-26T03:42:58.770Z,96011.06
2023-04-26T03:45:27.023Z,95999.41
2023-04-26T03:47:55.102Z,96006.47
2023-04-26T03:50:23.575Z,96000.47
2023-04-26T03:52:51.571Z,96008.22
2023-04-26T03:55:19.591Z,96007.94
2023-04-26T03:57:49.515Z,96012.72
2023-04-26T04:00:17.611Z,96000.81
2023-04-26T04:02:45.734Z,96003.88
2023-04-26T04:05:13.978Z,95997.88
2023-04-26T04:07:42.098Z,96000.59
2023-04-26T04:10:11.564Z,95994.97
2023-04-26T04:12:39.558Z,95993.56
2023-04-26T04:15:10.451Z,96016.66
2023-04-26T04:17:38.920Z,96005.94
2023-04-26T04:20:08.783Z,96014.50
2023-04-26T04:22:36.775Z,96004.34
2023-04-26T04:25:05.912Z,96014.13
2023-04-26T04:27:33.781Z,96001.31
2023-04-26T04:30:03.581Z,95995.06
2023-04-26T04:32:34.354Z,95987.75
2023-04-26T04:35:02.369Z,95986.25
2023-04-26T04:37:33.116Z,96002.13
2023-04-26T04:40:01.260Z,96003.19
2023-04-26T04:42:29.268Z,96020.34
2023-04-26T04:44:59.788Z,96026.09
2023-04-26T04:47:27.707Z,96040.72
2023-04-26T04:49:57.268Z,96043.91
2023-04-26T04:52:25.166Z,96040.38
2023-04-26T04:54:53.066Z,96055.41
2023-04-26T04:57:31.359Z,96048.50
2023-04-26T04:59:59.409Z,96054.16
2023-04-26T05:02:27.487Z,96046.66
2023-04-26T05:04:57.223Z,96042.13
2023-04-26T05:07:25.969Z,96036.47
2023-04-26T05:09:54.620Z,96043.34
2023-04-26T05:12:22.504Z,96046.75
2023-04-26T05:14:50.616Z,96046.88
2023-04-26T05:17:18.631Z,96050.44
2023-04-26T05:19:46.579Z,96052.69
2023-04-26T05:22:18.374Z,96047.59
2023-04-26T05:24:47.628Z,96054.22
2023-04-26T05:27:15.945Z,96056.50
2023-04-26T05:29:43.915Z,96060.50
2023-04-26T05:32:11.900Z,96059.78
2023-04-26T05:34:39.967Z,96063.50
2023-04-26T05:37:07.950Z,96056.88
2023-04-26T05:39:37.330Z,96065.97
2023-04-26T05:42:05.408Z,96075.75
2023-04-26T05:44:33.317Z,96063.28
2023-04-26T05:47:01.179Z,96080.00
2023-04-26T05:49:29.071Z,96081.44
2023-04-26T05:51:56.846Z,96084.78
2023-04-26T05:54:24.922Z,96083.28
2023-04-26T05:56:54.177Z,96080.63
2023-04-26T05:59:22.242Z,96090.69
2023-04-26T06:01:50.129Z,96087.50
2023-04-26T06:04:18.339Z,96087.97
2023-04-26T06:06:46.469Z,96098.50
2023-04-26T06:09:14.318Z,96092.03
2023-04-26T06:11:42.174Z,96088.22
2023-04-26T06:14:23.169Z,96094.38
2023-04-26T06:16:58.034Z,96099.22
2023-04-26T06:19:26.827Z,96102.13
2023-04-26T06:21:57.125Z,96105.75
2023-04-26T06:24:25.889Z,96107.75
2023-04-26T06:26:53.773Z,96104.78
2023-04-26T06:29:25.460Z,96098.72
2023-04-26T06:31:53.335Z,96101.19
2023-04-26T06:34:24.294Z,96107.38
2023-04-26T06:36:52.295Z,96105.44
2023-04-26T06:39:20.377Z,96097.81
2023-04-26T06:41:48.944Z,96112.06
2023-04-26T06:44:17.861Z,96119.28
2023-04-26T06:46:47.214Z,96111.56
2023-04-26T06:49:15.139Z,96094.53
2023-04-26T06:51:43.018Z,96096.31
2023-04-26T06:54:11.469Z,96106.16
2023-04-26T06:56:41.845Z,96102.38
2023-04-26T06:59:09.754Z,96105.53
2023-04-26T07:01:38.123Z,96110.28
2023-04-26T07:04:10.949Z,96088.84
2023-04-26T07:06:39.786Z,96107.47
2023-04-26T07:09:08.637Z,96099.81
2023-04-26T07:11:37.708Z,96110.94
2023-04-26T07:14:07.823Z,96117.66
2023-04-26T07:16:35.819Z,96108.84
2023-04-26T07:19:07.411Z,96107.13
2023-04-26T07:21:36.671Z,96112.47
2023-04-26T07:24:05.003Z,96100.72
2023-04-26T07:26:32.910Z,96080.03
2023-04-26T07:29:01.085Z,96103.78
2023-04-26T07:31:28.994Z,96098.97
2023-04-26T07:33:57.369Z,96107.31
2023-04-26T07:36:25.652Z,96108.66
2023-04-26T07:38:54.918Z,96119.84
2023-04-26T07:41:22.857Z,96117.69
2023-04-26T07:43:50.879Z,96120.81
2023-04-26T07:46:19.127Z,96094.13
2023-04-26T07:48:47.336Z,96108.00
2023-04-26T07:51:15.322Z,96122.00
2023-04-26T07:53:43.363Z,96109.63
2023-04-26T07:56:12.706Z,96114.31
2023-04-26T07:58:40.849Z,96094.88
2023-04-26T08:01:11.931Z,96103.16
2023-04-26T08:03:39.997Z,96106.03
2023-04-26T08:06:11.465Z,96102.25
2023-04-26T08:08:44.687Z,96110.06
2023-04-26T08:11:14.051Z,96111.16
2023-04-26T08:13:43.920Z,96105.34
2023-04-26T08:16:15.077Z,96105.31
2023-04-26T08:18:45.375Z,96092.16
2023-04-26T08:21:17.401Z,96105.94
2023-04-26T08:23:45.335Z,96096.97
2023-04-26T08:26:14.583Z,96107.09
2023-04-26T08:28:42.465Z,96107.22
2023-04-26T08:31:10.440Z,96094.78
2023-04-26T08:33:38.362Z,96106.63
2023-04-26T08:36:06.980Z,96107.78
2023-04-26T08:38:35.290Z,96090.72
2023-04-26T08:41:05.411Z,96109.16
2023-04-26T08:43:37.734Z,96096.56
2023-04-26T08:46:12.549Z,96104.84
2023-04-26T08:48:42.046Z,96095.38
2023-04-26T08:51:14.057Z,96107.13
2023-04-26T08:53:43.953Z,96103.91
2023-04-26T08:56:15.403Z,96107.84
2023-04-26T08:58:44.697Z,96105.53
2023-04-26T09:01:17.092Z,96101.44
2023-04-26T09:03:45.162Z,96104.50
2023-04-26T09:06:14.342Z,96107.75
2023-04-26T09:08:44.044Z,96109.63
2023-04-26T09:11:11.893Z,96109.56
2023-04-26T09:13:39.861Z,96108.16
2023-04-26T09:16:12.563Z,96102.50
2023-04-26T09:18:50.803Z,96095.06
2023-04-26T09:21:20.151Z,96104.88
2023-04-26T09:24:04.406Z,96102.50
2023-04-26T09:26:32.339Z,96107.28
2023-04-26T09:29:18.556Z,96108.31
2023-04-26T09:31:51.057Z,96115.34
2023-04-26T09:34:18.994Z,96116.56
2023-04-26T09:36:51.515Z,96114.03
2023-04-26T09:39:37.256Z,96109.50
2023-04-26T09:42:06.035Z,96108.44
2023-04-26T09:44:34.344Z,96106.75
2023-04-26T09:47:06.155Z,96102.78
2023-04-26T09:49:44.364Z,96103.53
2023-04-26T09:52:12.294Z,96093.72
2023-04-26T09:54:45.651Z,96089.00
2023-04-26T09:57:15.544Z,96097.09
2023-04-26T09:59:45.610Z,96097.84
2023-04-26T10:02:20.574Z,96096.28
2023-04-26T10:04:51.260Z,96087.56
2023-04-26T10:07:21.585Z,96088.31
2023-04-26T10:09:50.996Z,96088.38
2023-04-26T10:12:23.311Z,96093.91
2023-04-26T10:14:51.314Z,96080.09
2023-04-26T10:17:21.830Z,96080.88
2023-04-26T10:19:56.441Z,96081.75
2023-04-26T10:22:28.147Z,96084.22
2023-04-26T10:24:57.003Z,96081.03
2023-04-26T10:27:53.196Z,96080.34
2023-04-26T10:30:24.190Z,96078.91
2023-04-26T10:33:17.595Z,96065.41
2023-04-26T10:36:15.726Z,96069.00
2023-04-26T10:39:20.351Z,96063.09
2023-04-26T10:41:48.744Z,96058.34
2023-04-26T10:44:40.064Z,96060.69
2023-04-26T10:47:12.612Z,96056.78
2023-04-26T10:49:48.729Z,96059.53
2023-04-26T10:52:20.181Z,96052.03
2023-04-26T10:55:00.368Z,96052.00
2023-04-26T10:57:52.818Z,96048.06
2023-04-26T11:00:32.911Z,96054.00
2023-04-26T11:03:06.526Z,96054.38
2023-04-26T11:08:30.250Z,96056.72
2023-04-26T11:11:01.177Z,96050.38
2023-04-26T11:13:31.555Z,96057.53
2023-04-26T11:16:04.205Z,96060.25
2023-04-26T11:18:33.546Z,96055.84
2023-04-26T11:21:02.019Z,96045.63
2023-04-26T11:23:32.534Z,96045.69
2023-04-26T11:26:02.898Z,96035.44
2023-04-26T11:28:33.898Z,96039.19
2023-04-26T11:31:04.150Z,96040.66
2023-04-26T11:33:34.113Z,96044.53
2023-04-26T11:36:02.294Z,96036.09
2023-04-26T11:38:31.564Z,96041.75
2023-04-26T11:41:01.540Z,96043.31
2023-04-26T11:43:36.928Z,96040.50
2023-04-26T11:46:06.693Z,96042.06
2023-04-26T11:48:36.830Z,96039.00
2023-04-26T11:51:07.214Z,96044.91
2023-04-26T11:53:41.968Z,96046.88
2023-04-26T11:56:17.679Z,96039.78
2023-04-26T11:58:47.061Z,96039.75
2023-04-26T12:01:22.022Z,96044.88
2023-04-26T12:03:52.436Z,96038.59
2023-04-26T12:06:21.387Z,96037.41
2023-04-26T12:08:54.026Z,96031.03
2023-04-26T12:11:22.083Z,96033.81
2023-04-26T12:13:50.035Z,96032.22
2023-04-26T12:16:26.114Z,96029.03
2023-04-26T12:18:56.708Z,96024.94
2023-04-26T12:21:26.839Z,96025.88
2023-04-26T12:23:57.481Z,96023.94
2023-04-26T12:26:44.740Z,96022.41
2023-04-26T12:29:12.885Z,96020.91
2023-04-26T12:31:41.005Z,96010.00
2023-04-26T12:34:09.181Z,96005.59
2023-04-26T12:36:37.184Z,96023.56
2023-04-26T12:39:06.898Z,96011.09
2023-04-26T12:41:34.992Z,96007.16
2023-04-26T12:44:03.125Z,96004.34
2023-04-26T12:46:31.241Z,96007.69
2023-04-26T12:48:59.561Z,95991.50
2023-04-26T12:51:27.467Z,95998.13
2023-04-26T12:53:55.341Z,95999.72
2023-04-26T12:56:25.542Z,95991.88
2023-04-26T12:58:53.475Z,95986.41
2023-04-26T13:01:23.544Z,95991.91
2023-04-26T13:03:51.630Z,95998.56
2023-04-26T13:06:19.735Z,95994.16
2023-04-26T13:08:47.796Z,95991.31
2023-04-26T13:11:16.379Z,95983.81
2023-04-26T13:13:45.617Z,95979.75
2023-04-26T13:16:13.646Z,95974.53
2023-04-26T13:18:41.710Z,95981.91
2023-04-26T13:21:09.535Z,95981.84
2023-04-26T13:23:37.487Z,95972.47
2023-04-26T13:26:05.364Z,95986.19
2023-04-26T13:28:33.321Z,95981.13
2023-04-26T13:31:04.881Z,95974.50
2023-04-26T13:33:32.812Z,96000.41
2023-04-26T13:36:00.789Z,95989.78
2023-04-26T13:38:29.443Z,95980.78
2023-04-26T13:40:58.588Z,95972.66
2023-04-26T13:43:26.569Z,95986.88
2023-04-26T13:45:54.588Z,95983.16
2023-04-26T13:48:23.864Z,95986.03
2023-04-26T13:50:51.924Z,95999.50
2023-04-26T13:53:20.625Z,95995.06
2023-04-26T13:55:48.830Z,95993.91
2023-04-26T13:58:21.922Z,95990.81
2023-04-26T14:00:49.927Z,95979.16
2023-04-26T14:03:20.952Z,95999.50
2023-04-26T14:08:21.198Z,95987.28
2023-04-26T14:10:49.305Z,95993.97
2023-04-26T14:13:17.131Z,95985.88
2023-04-26T14:15:44.976Z,95994.50
2023-04-26T14:18:12.933Z,95993.94
2023-04-26T14:20:40.925Z,95985.94
2023-04-26T14:23:08.747Z,95976.38
2023-04-26T14:25:38.009Z,95989.72
2023-04-26T14:28:05.835Z,95975.72
2023-04-26T14:30:33.628Z,95977.38
2023-04-26T14:33:01.531Z,95985.34
2023-04-26T14:35:29.388Z,95980.44
2023-04-26T14:37:57.286Z,95981.81
2023-04-26T14:40:25.186Z,95987.38
2023-04-26T14:42:54.389Z,95979.50
2023-04-26T14:45:27.810Z,95976.03
2023-04-26T14:48:02.338Z,95968.31
2023-04-26T14:50:30.517Z,95975.44
2023-04-26T14:52:58.342Z,95968.63
2023-04-26T14:55:27.192Z,95979.63
2023-04-26T14:57:56.374Z,95967.56
2023-04-26T15:00:25.541Z,95969.03
2023-04-26T15:02:53.504Z,95971.41
2023-04-26T15:05:24.152Z,95972.00
2023-04-26T15:07:52.070Z,95972.56
2023-04-26T15:10:19.958Z,95967.63
2023-04-26T15:12:47.760Z,95968.53
2023-04-26T15:15:17.157Z,95959.00
2023-04-26T15:17:45.017Z,95958.72
2023-04-26T15:20:13.413Z,95958.66
2023-04-26T15:22:47.275Z,95947.28
2023-04-26T15:25:15.366Z,95941.16
2023-04-26T15:27:43.171Z,95943.22
2023-04-26T15:30:14.382Z,95954.06
2023-04-26T15:32:43.639Z,95952.22
2023-04-26T15:35:15.187Z,95953.34
2023-04-26T15:37:44.116Z,95944.06
2023-04-26T15:40:13.099Z,95949.63
2023-04-26T15:42:40.981Z,95948.97
2023-04-26T15:45:09.813Z,95955.03
2023-04-26T15:47:38.057Z,95955.44
2023-04-26T15:50:09.136Z,95945.31
2023-04-26T15:52:39.273Z,95960.56
2023-04-26T15:55:08.636Z,95970.75
2023-04-26T15:57:36.760Z,95960.47
2023-04-26T16:00:06.098Z,95955.34
2023-04-26T16:02:33.951Z,95956.97
2023-04-26T16:05:01.934Z,95948.50
2023-04-26T16:07:32.029Z,95960.19
2023-04-26T16:09:59.950Z,95961.09
2023-04-26T16:12:27.772Z,95953.97
2023-04-26T16:14:56.057Z,95962.66
2023-04-26T16:17:23.881Z,95947.53
2023-04-26T16:19:51.724Z,95962.06
2023-04-26T16:22:19.586Z,95950.13
2023-04-26T16:24:48.772Z,95955.34
2023-04-26T16:27:20.972Z,95951.03
2023-04-26T16:29:49.424Z,95944.44
2023-04-26T16:32:17.310Z,95948.72
2023-04-26T16:34:45.072Z,95944.38
2023-04-26T16:37:12.831Z,95945.72
2023-04-26T16:39:40.733Z,95945.22
2023-04-26T16:42:09.953Z,95953.22
2023-04-26T16:44:37.780Z,95951.56
2023-04-26T16:47:05.863Z,95947.06
2023-04-26T16:49:33.853Z,95951.09
2023-04-26T16:52:01.820Z,95954.94
2023-04-26T16:54:29.834Z,95949.28
2023-04-26T16:56:58.397Z,95951.72
2023-04-26T16:59:33.615Z,95950.97
2023-04-26T17:02:01.662Z,95952.53
2023-04-26T17:04:29.772Z,95953.38
2023-04-26T17:06:57.690Z,95958.63
2023-04-26T17:09:26.561Z,95957.16
2023-04-26T17:11:54.363Z,95965.53
2023-04-26T17:14:22.218Z,95960.03
2023-04-26T17:16:51.407Z,95962.84
2023-04-26T17:19:19.224Z,95978.25
2023-04-26T17:21:47.058Z,95974.66
2023-04-26T17:24:14.908Z,95969.44
2023-04-26T17:26:42.841Z,95967.03
2023-04-26T17:29:10.757Z,95974.25
2023-04-26T17:31:38.675Z,95975.06
2023-04-26T17:34:07.882Z,95973.88
2023-04-26T17:36:35.746Z,95977.50
2023-04-26T17:39:03.732Z,95985.00
2023-04-26T17:41:31.720Z,95974.91
2023-04-26T17:43:59.570Z,95975.28
2023-04-26T17:46:27.593Z,95980.72
2023-04-26T17:48:55.826Z,95984.16
2023-04-26T17:51:27.804Z,95988.22
2023-04-26T17:53:55.706Z,95976.44
2023-04-26T17:56:23.556Z,95985.25
2023-04-26T17:58:51.368Z,95996.34
2023-04-26T18:01:20.140Z,95992.44
2023-04-26T18:03:48.301Z,95990.84
2023-04-26T18:06:17.977Z,95994.88
2023-04-26T18:08:49.548Z,95985.38
2023-04-26T18:11:18.714Z,95997.31
2023-04-26T18:13:47.975Z,95998.19
2023-04-26T18:16:17.033Z,95994.31
2023-04-26T18:18:45.011Z,95997.88
2023-04-26T18:21:13.062Z,96001.44
2023-04-26T18:23:41.595Z,96000.66
2023-04-26T18:26:10.933Z,95999.88
2023-04-26T18:28:38.721Z,96001.41
2023-04-26T18:31:08.061Z,96008.09
2023-04-26T18:33:36.015Z,96014.00
2023-04-26T18:36:03.887Z,96005.66
2023-04-26T18:38:31.831Z,96011.50
2023-04-26T18:40:59.846Z,96020.50
2023-04-26T18:43:29.066Z,96020.09
2023-04-26T18:45:56.926Z,96025.59
2023-04-26T18:48:24.794Z,96020.00
2023-04-26T18:50:53.819Z,96019.50
2023-04-26T18:53:23.537Z,96021.38
2023-04-26T18:55:53.186Z,96018.19
2023-04-26T18:58:21.059Z,96023.28
2023-04-26T19:00:50.580Z,96027.94
2023-04-26T19:03:19.088Z,96025.06
2023-04-26T19:05:47.232Z,96026.53
2023-04-26T19:08:15.096Z,96031.63
2023-04-26T19:10:43.019Z,96034.28
2023-04-26T19:13:10.924Z,96033.47
2023-04-26T19:15:38.748Z,96037.41
2023-04-26T19:18:08.110Z,96034.25
2023-04-26T19:20:36.967Z,96039.31
2023-04-26T19:23:04.832Z,96041.59
2023-04-26T19:25:33.040Z,96040.28
2023-04-26T19:28:01.407Z,96048.16
2023-04-26T19:30:29.226Z,96047.25
2023-04-26T19:32:57.279Z,96046.13
2023-04-26T19:35:26.588Z,96047.09
2023-04-26T19:37:54.524Z,96061.00
2023-04-26T19:40:22.406Z,96052.69
2023-04-26T19:42:50.338Z,96066.84
2023-04-26T19:45:20.484Z,96071.59
2023-04-26T19:47:48.459Z,96067.59
2023-04-26T19:50:16.437Z,96069.47
2023-04-26T19:52:46.134Z,96065.81
2023-04-26T19:55:14.890Z,96067.38
2023-04-26T19:57:42.811Z,96070.50
2023-04-26T20:00:11.834Z,96070.50
2023-04-26T20:02:39.700Z,96072.09
2023-04-26T20:05:09.264Z,96065.03
2023-04-26T20:07:37.501Z,96049.91
2023-04-26T20:10:09.246Z,96049.72
2023-04-26T20:12:47.993Z,96044.47
2023-04-26T20:15:42.939Z,96046.25
2023-04-26T20:18:24.696Z,96037.63
2023-04-26T20:20:52.803Z,96052.97
2023-04-26T20:23:23.209Z,96052.25
2023-04-26T20:25:53.852Z,96054.78
2023-04-26T20:28:22.748Z,96061.09
2023-04-26T20:30:51.263Z,96076.75
2023-04-26T20:33:20.948Z,96070.50
2023-04-26T20:35:49.568Z,96068.84
2023-04-26T20:38:17.769Z,96059.41
2023-04-26T20:40:46.071Z,96056.25
2023-04-26T20:43:16.745Z,96071.00
2023-04-26T20:45:45.081Z,96059.22
2023-04-26T20:48:15.241Z,96062.75
2023-04-26T20:50:43.940Z,96086.44
2023-04-26T20:53:12.215Z,96077.41
2023-04-26T20:55:41.066Z,96054.38
2023-04-26T20:58:09.423Z,96085.66
2023-04-26T21:00:39.226Z,96073.66
2023-04-26T21:03:09.465Z,96083.88
2023-04-26T21:05:37.860Z,96056.91
2023-04-26T21:08:18.349Z,96072.94
2023-04-26T21:20:34.738Z,96060.22
2023-04-26T21:27:03.656Z,96055.31
2023-04-26T21:29:47.671Z,96051.31
2023-04-26T21:33:20.732Z,96026.31
2023-04-26T21:42:17.160Z,96072.22
2023-04-26T21:48:04.068Z,96031.03
2023-04-26T22:00:38.499Z,96056.00
2023-04-26T22:24:08.452Z,96060.09
2023-04-26T22:41:24.124Z,96126.28
2023-04-26T22:57:15.848Z,96074.00
2023-04-26T23:00:35.610Z,96077.09
2023-04-26T23:57:52.694Z,96134.88
